sensor_id;sensor_type;location;lat;lon;timestamp;P1;durP1;ratioP1;P2;durP2;ratioP2
16804;SDS011;8520;50.102;20.010;2023-05-10T00:01:41;8.10;;;7.40;;
16804;SDS011;8520;50.102;20.010;2023-05-10T00:04:09;8.30;;;7.50;;
16804;SDS011;8520;50.102;20.010;2023-05-10T00:06:37;8.23;;;7.43;;
16804;SDS011;8520;50.102;20.010;2023-05-10T00:09:06;9.03;;;7.33;;
16804;SDS011;8520;50.102;20.010;2023-05-10T00:11:34;8.13;;;7.40;;
16804;SDS011;8520;50.102;20.010;2023-05-10T00:14:03;8.03;;;7.27;;
16804;SDS011;8520;50.102;20.010;2023-05-10T00:16:31;8.57;;;7.80;;
16804;SDS011;8520;50.102;20.010;2023-05-10T00:18:59;7.57;;;6.97;;
16804;SDS011;8520;50.102;20.010;2023-05-10T00:21:27;7.87;;;7.27;;
16804;SDS011;8520;50.102;20.010;2023-05-10T00:23:56;8.27;;;7.57;;
16804;SDS011;8520;50.102;20.010;2023-05-10T00:26:25;8.03;;;7.30;;
16804;SDS011;8520;50.102;20.010;2023-05-10T00:28:55;8.13;;;7.43;;
16804;SDS011;8520;50.102;20.010;2023-05-10T00:31:24;7.60;;;7.00;;
16804;SDS011;8520;50.102;20.010;2023-05-10T00:33:53;8.27;;;7.57;;
16804;SDS011;8520;50.102;20.010;2023-05-10T00:36:21;7.90;;;7.30;;
16804;SDS011;8520;50.102;20.010;2023-05-10T00:38:49;8.17;;;7.57;;
16804;SDS011;8520;50.102;20.010;2023-05-10T00:41:18;10.53;;;8.07;;
16804;SDS011;8520;50.102;20.010;2023-05-10T00:43:49;8.27;;;7.40;;
16804;SDS011;8520;50.102;20.010;2023-05-10T00:46:17;9.40;;;8.37;;
16804;SDS011;8520;50.102;20.010;2023-05-10T00:48:46;8.60;;;7.80;;
16804;SDS011;8520;50.102;20.010;2023-05-10T00:51:15;9.07;;;8.27;;
16804;SDS011;8520;50.102;20.010;2023-05-10T00:53:43;8.53;;;7.80;;
16804;SDS011;8520;50.102;20.010;2023-05-10T00:56:13;8.47;;;7.77;;
16804;SDS011;8520;50.102;20.010;2023-05-10T00:58:41;9.37;;;8.43;;
16804;SDS011;8520;50.102;20.010;2023-05-10T01:01:10;8.67;;;7.87;;
16804;SDS011;8520;50.102;20.010;2023-05-10T01:03:39;7.70;;;6.90;;
16804;SDS011;8520;50.102;20.010;2023-05-10T01:06:08;8.60;;;8.00;;
16804;SDS011;8520;50.102;20.010;2023-05-10T01:08:37;8.23;;;7.53;;
16804;SDS011;8520;50.102;20.010;2023-05-10T01:11:06;8.40;;;7.70;;
16804;SDS011;8520;50.102;20.010;2023-05-10T01:13:35;8.00;;;7.30;;
16804;SDS011;8520;50.102;20.010;2023-05-10T01:16:06;9.10;;;7.70;;
16804;SDS011;8520;50.102;20.010;2023-05-10T01:18:36;8.27;;;7.77;;
16804;SDS011;8520;50.102;20.010;2023-05-10T01:21:10;7.83;;;7.27;;
16804;SDS011;8520;50.102;20.010;2023-05-10T01:23:58;9.27;;;7.90;;
16804;SDS011;8520;50.102;20.010;2023-05-10T01:30:21;8.37;;;7.73;;
16804;SDS011;8520;50.102;20.010;2023-05-10T01:33:12;8.03;;;7.30;;
16804;SDS011;8520;50.102;20.010;2023-05-10T01:35:47;8.50;;;7.90;;
16804;SDS011;8520;50.102;20.010;2023-05-10T01:38:22;8.37;;;7.77;;
16804;SDS011;8520;50.102;20.010;2023-05-10T01:41:08;7.67;;;7.07;;
16804;SDS011;8520;50.102;20.010;2023-05-10T01:43:43;8.87;;;8.27;;
16804;SDS011;8520;50.102;20.010;2023-05-10T01:46:17;8.03;;;7.43;;
16804;SDS011;8520;50.102;20.010;2023-05-10T01:48:54;8.37;;;7.77;;
16804;SDS011;8520;50.102;20.010;2023-05-10T01:51:28;8.90;;;8.20;;
16804;SDS011;8520;50.102;20.010;2023-05-10T01:54:03;9.00;;;8.20;;
16804;SDS011;8520;50.102;20.010;2023-05-10T01:56:34;8.53;;;7.87;;
16804;SDS011;8520;50.102;20.010;2023-05-10T01:59:05;8.23;;;7.73;;
16804;SDS011;8520;50.102;20.010;2023-05-10T02:01:36;8.60;;;7.90;;
16804;SDS011;8520;50.102;20.010;2023-05-10T02:04:06;8.97;;;8.37;;
16804;SDS011;8520;50.102;20.010;2023-05-10T02:06:36;9.37;;;8.77;;
16804;SDS011;8520;50.102;20.010;2023-05-10T02:09:06;9.60;;;9.00;;
16804;SDS011;8520;50.102;20.010;2023-05-10T02:11:37;8.63;;;7.93;;
16804;SDS011;8520;50.102;20.010;2023-05-10T02:14:06;8.53;;;7.93;;
16804;SDS011;8520;50.102;20.010;2023-05-10T02:16:37;8.50;;;8.00;;
16804;SDS011;8520;50.102;20.010;2023-05-10T02:19:08;8.40;;;7.80;;
16804;SDS011;8520;50.102;20.010;2023-05-10T02:21:39;9.27;;;8.50;;
16804;SDS011;8520;50.102;20.010;2023-05-10T02:24:09;8.50;;;7.80;;
16804;SDS011;8520;50.102;20.010;2023-05-10T02:26:38;8.83;;;8.20;;
16804;SDS011;8520;50.102;20.010;2023-05-10T02:29:07;9.73;;;8.73;;
16804;SDS011;8520;50.102;20.010;2023-05-10T02:31:38;8.87;;;8.20;;
16804;SDS011;8520;50.102;20.010;2023-05-10T02:34:11;8.80;;;8.20;;
16804;SDS011;8520;50.102;20.010;2023-05-10T02:36:41;8.83;;;8.17;;
16804;SDS011;8520;50.102;20.010;2023-05-10T02:39:10;9.07;;;8.37;;
16804;SDS011;8520;50.102;20.010;2023-05-10T02:41:40;9.60;;;8.53;;
16804;SDS011;8520;50.102;20.010;2023-05-10T02:44:09;9.30;;;8.60;;
16804;SDS011;8520;50.102;20.010;2023-05-10T02:46:40;9.60;;;8.87;;
16804;SDS011;8520;50.102;20.010;2023-05-10T02:49:08;10.93;;;9.57;;
16804;SDS011;8520;50.102;20.010;2023-05-10T02:51:43;9.93;;;9.27;;
16804;SDS011;8520;50.102;20.010;2023-05-10T02:54:15;9.60;;;8.80;;
16804;SDS011;8520;50.102;20.010;2023-05-10T02:56:51;9.23;;;8.37;;
16804;SDS011;8520;50.102;20.010;2023-05-10T02:59:24;9.70;;;9.00;;
16804;SDS011;8520;50.102;20.010;2023-05-10T03:01:52;9.77;;;9.07;;
16804;SDS011;8520;50.102;20.010;2023-05-10T03:04:20;9.00;;;8.50;;
16804;SDS011;8520;50.102;20.010;2023-05-10T03:06:51;9.63;;;8.87;;
16804;SDS011;8520;50.102;20.010;2023-05-10T03:09:19;9.67;;;8.77;;
16804;SDS011;8520;50.102;20.010;2023-05-10T03:11:50;9.73;;;9.03;;
16804;SDS011;8520;50.102;20.010;2023-05-10T03:14:40;9.13;;;8.50;;
16804;SDS011;8520;50.102;20.010;2023-05-10T03:17:19;9.70;;;9.10;;
16804;SDS011;8520;50.102;20.010;2023-05-10T03:19:53;10.13;;;9.13;;
16804;SDS011;8520;50.102;20.010;2023-05-10T03:22:25;9.23;;;8.63;;
16804;SDS011;8520;50.102;20.010;2023-05-10T03:24:57;9.63;;;9.03;;
16804;SDS011;8520;50.102;20.010;2023-05-10T03:27:29;10.03;;;9.33;;
16804;SDS011;8520;50.102;20.010;2023-05-10T03:29:59;10.33;;;9.27;;
16804;SDS011;8520;50.102;20.010;2023-05-10T03:32:31;10.20;;;9.50;;
16804;SDS011;8520;50.102;20.010;2023-05-10T03:35:03;9.37;;;8.73;;
16804;SDS011;8520;50.102;20.010;2023-05-10T03:37:36;9.73;;;9.13;;
16804;SDS011;8520;50.102;20.010;2023-05-10T03:40:05;9.83;;;8.77;;
16804;SDS011;8520;50.102;20.010;2023-05-10T03:42:36;10.20;;;9.27;;
16804;SDS011;8520;50.102;20.010;2023-05-10T03:45:05;9.47;;;8.53;;
16804;SDS011;8520;50.102;20.010;2023-05-10T03:47:34;9.40;;;8.23;;
16804;SDS011;8520;50.102;20.010;2023-05-10T03:50:03;8.50;;;8.00;;
16804;SDS011;8520;50.102;20.010;2023-05-10T03:52:31;9.87;;;9.27;;
16804;SDS011;8520;50.102;20.010;2023-05-10T03:55:01;9.37;;;8.47;;
16804;SDS011;8520;50.102;20.010;2023-05-10T03:57:30;10.20;;;8.77;;
16804;SDS011;8520;50.102;20.010;2023-05-10T03:59:59;9.10;;;8.40;;
16804;SDS011;8520;50.102;20.010;2023-05-10T04:02:27;10.00;;;8.93;;
16804;SDS011;8520;50.102;20.010;2023-05-10T04:04:56;9.30;;;8.50;;
16804;SDS011;8520;50.102;20.010;2023-05-10T04:07:24;8.77;;;7.97;;
16804;SDS011;8520;50.102;20.010;2023-05-10T04:09:52;9.33;;;8.63;;
16804;SDS011;8520;50.102;20.010;2023-05-10T04:12:22;8.70;;;8.10;;
16804;SDS011;8520;50.102;20.010;2023-05-10T04:14:51;8.07;;;7.47;;
16804;SDS011;8520;50.102;20.010;2023-05-10T04:17:19;8.83;;;8.10;;
16804;SDS011;8520;50.102;20.010;2023-05-10T04:19:47;8.77;;;8.07;;
16804;SDS011;8520;50.102;20.010;2023-05-10T04:22:15;8.20;;;7.70;;
16804;SDS011;8520;50.102;20.010;2023-05-10T04:24:44;8.63;;;7.90;;
16804;SDS011;8520;50.102;20.010;2023-05-10T04:27:12;10.63;;;8.57;;
16804;SDS011;8520;50.102;20.010;2023-05-10T04:29:41;8.70;;;7.97;;
16804;SDS011;8520;50.102;20.010;2023-05-10T04:32:09;8.47;;;7.57;;
16804;SDS011;8520;50.102;20.010;2023-05-10T04:34:37;13.90;;;7.83;;
16804;SDS011;8520;50.102;20.010;2023-05-10T04:37:06;8.40;;;7.70;;
16804;SDS011;8520;50.102;20.010;2023-05-10T04:39:34;8.13;;;7.57;;
16804;SDS011;8520;50.102;20.010;2023-05-10T04:42:02;8.83;;;8.23;;
16804;SDS011;8520;50.102;20.010;2023-05-10T04:44:32;9.10;;;8.30;;
16804;SDS011;8520;50.102;20.010;2023-05-10T04:47:01;8.93;;;8.10;;
16804;SDS011;8520;50.102;20.010;2023-05-10T04:49:29;8.77;;;8.07;;
16804;SDS011;8520;50.102;20.010;2023-05-10T04:51:57;9.27;;;8.47;;
16804;SDS011;8520;50.102;20.010;2023-05-10T04:54:26;10.13;;;7.93;;
16804;SDS011;8520;50.102;20.010;2023-05-10T04:56:54;9.37;;;8.40;;
16804;SDS011;8520;50.102;20.010;2023-05-10T04:59:22;8.67;;;7.87;;
16804;SDS011;8520;50.102;20.010;2023-05-10T05:01:50;8.83;;;8.10;;
16804;SDS011;8520;50.102;20.010;2023-05-10T05:04:19;8.80;;;8.10;;
16804;SDS011;8520;50.102;20.010;2023-05-10T05:06:49;9.50;;;7.50;;
16804;SDS011;8520;50.102;20.010;2023-05-10T05:09:19;8.10;;;7.40;;
16804;SDS011;8520;50.102;20.010;2023-05-10T05:11:47;7.97;;;7.30;;
16804;SDS011;8520;50.102;20.010;2023-05-10T05:14:15;8.30;;;7.60;;
16804;SDS011;8520;50.102;20.010;2023-05-10T05:16:43;7.37;;;6.60;;
16804;SDS011;8520;50.102;20.010;2023-05-10T05:19:12;8.47;;;7.00;;
16804;SDS011;8520;50.102;20.010;2023-05-10T05:21:41;7.23;;;6.53;;
16804;SDS011;8520;50.102;20.010;2023-05-10T05:24:09;8.03;;;7.10;;
16804;SDS011;8520;50.102;20.010;2023-05-10T05:26:39;9.83;;;6.33;;
16804;SDS011;8520;50.102;20.010;2023-05-10T05:29:07;6.93;;;6.33;;
16804;SDS011;8520;50.102;20.010;2023-05-10T05:31:35;10.20;;;6.70;;
16804;SDS011;8520;50.102;20.010;2023-05-10T05:34:03;7.37;;;6.67;;
16804;SDS011;8520;50.102;20.010;2023-05-10T05:36:32;9.90;;;7.53;;
16804;SDS011;8520;50.102;20.010;2023-05-10T05:39:04;12.43;;;6.90;;
16804;SDS011;8520;50.102;20.010;2023-05-10T05:41:32;7.40;;;6.70;;
16804;SDS011;8520;50.102;20.010;2023-05-10T05:44:00;9.10;;;6.93;;
16804;SDS011;8520;50.102;20.010;2023-05-10T05:46:28;10.50;;;7.47;;
16804;SDS011;8520;50.102;20.010;2023-05-10T05:48:56;7.80;;;7.00;;
16804;SDS011;8520;50.102;20.010;2023-05-10T05:51:24;10.63;;;7.20;;
16804;SDS011;8520;50.102;20.010;2023-05-10T05:53:52;8.73;;;6.87;;
16804;SDS011;8520;50.102;20.010;2023-05-10T05:56:22;6.57;;;6.07;;
16804;SDS011;8520;50.102;20.010;2023-05-10T05:58:51;8.37;;;7.10;;
16804;SDS011;8520;50.102;20.010;2023-05-10T06:01:19;7.10;;;6.50;;
16804;SDS011;8520;50.102;20.010;2023-05-10T06:03:47;9.83;;;6.40;;
16804;SDS011;8520;50.102;20.010;2023-05-10T06:06:18;7.33;;;6.73;;
16804;SDS011;8520;50.102;20.010;2023-05-10T06:08:46;7.00;;;6.40;;
16804;SDS011;8520;50.102;20.010;2023-05-10T06:11:15;8.67;;;6.20;;
16804;SDS011;8520;50.102;20.010;2023-05-10T06:13:44;7.20;;;6.50;;
16804;SDS011;8520;50.102;20.010;2023-05-10T06:16:13;7.07;;;6.37;;
16804;SDS011;8520;50.102;20.010;2023-05-10T06:18:41;9.70;;;5.40;;
16804;SDS011;8520;50.102;20.010;2023-05-10T06:21:09;7.37;;;6.73;;
16804;SDS011;8520;50.102;20.010;2023-05-10T06:23:37;8.53;;;6.57;;
16804;SDS011;8520;50.102;20.010;2023-05-10T06:26:05;8.47;;;7.07;;
16804;SDS011;8520;50.102;20.010;2023-05-10T06:28:33;7.37;;;6.60;;
16804;SDS011;8520;50.102;20.010;2023-05-10T06:31:03;7.70;;;6.80;;
16804;SDS011;8520;50.102;20.010;2023-05-10T06:33:31;8.00;;;6.53;;
16804;SDS011;8520;50.102;20.010;2023-05-10T06:36:00;8.00;;;7.30;;
16804;SDS011;8520;50.102;20.010;2023-05-10T06:38:28;7.73;;;6.93;;
16804;SDS011;8520;50.102;20.010;2023-05-10T06:40:56;8.70;;;7.80;;
16804;SDS011;8520;50.102;20.010;2023-05-10T06:43:24;9.77;;;7.00;;
16804;SDS011;8520;50.102;20.010;2023-05-10T06:45:52;8.03;;;6.23;;
16804;SDS011;8520;50.102;20.010;2023-05-10T06:48:22;6.87;;;6.13;;
16804;SDS011;8520;50.102;20.010;2023-05-10T06:50:50;9.83;;;6.60;;
16804;SDS011;8520;50.102;20.010;2023-05-10T06:53:18;8.33;;;5.63;;
16804;SDS011;8520;50.102;20.010;2023-05-10T06:55:46;6.57;;;5.97;;
16804;SDS011;8520;50.102;20.010;2023-05-10T06:58:16;6.57;;;5.57;;
16804;SDS011;8520;50.102;20.010;2023-05-10T07:00:44;6.23;;;5.83;;
16804;SDS011;8520;50.102;20.010;2023-05-10T07:03:13;6.63;;;5.83;;
16804;SDS011;8520;50.102;20.010;2023-05-10T07:05:43;6.27;;;5.33;;
16804;SDS011;8520;50.102;20.010;2023-05-10T07:08:11;5.90;;;5.40;;
16804;SDS011;8520;50.102;20.010;2023-05-10T07:10:42;6.60;;;6.00;;
16804;SDS011;8520;50.102;20.010;2023-05-10T07:13:10;6.60;;;6.10;;
16804;SDS011;8520;50.102;20.010;2023-05-10T07:15:38;6.57;;;5.97;;
16804;SDS011;8520;50.102;20.010;2023-05-10T07:18:06;6.47;;;5.97;;
16804;SDS011;8520;50.102;20.010;2023-05-10T07:20:34;6.70;;;6.10;;
16804;SDS011;8520;50.102;20.010;2023-05-10T07:23:04;6.83;;;6.23;;
16804;SDS011;8520;50.102;20.010;2023-05-10T07:25:32;5.87;;;5.47;;
16804;SDS011;8520;50.102;20.010;2023-05-10T07:28:00;5.70;;;5.32;;
16804;SDS011;8520;50.102;20.010;2023-05-10T07:30:28;6.20;;;5.70;;
16804;SDS011;8520;50.102;20.010;2023-05-10T07:32:57;6.70;;;6.10;;
16804;SDS011;8520;50.102;20.010;2023-05-10T07:35:25;6.18;;;5.68;;
16804;SDS011;8520;50.102;20.010;2023-05-10T07:37:53;6.13;;;5.18;;
16804;SDS011;8520;50.102;20.010;2023-05-10T07:40:23;8.25;;;5.85;;
16804;SDS011;8520;50.102;20.010;2023-05-10T07:42:51;8.25;;;5.70;;
16804;SDS011;8520;50.102;20.010;2023-05-10T07:45:19;5.97;;;5.47;;
16804;SDS011;8520;50.102;20.010;2023-05-10T07:47:47;7.20;;;6.05;;
16804;SDS011;8520;50.102;20.010;2023-05-10T07:50:15;5.55;;;5.05;;
16804;SDS011;8520;50.102;20.010;2023-05-10T07:52:44;5.70;;;5.20;;
16804;SDS011;8520;50.102;20.010;2023-05-10T07:55:12;5.60;;;5.20;;
16804;SDS011;8520;50.102;20.010;2023-05-10T07:57:42;6.68;;;5.90;;
16804;SDS011;8520;50.102;20.010;2023-05-10T08:00:12;5.63;;;5.22;;
16804;SDS011;8520;50.102;20.010;2023-05-10T08:02:44;6.03;;;5.50;;
16804;SDS011;8520;50.102;20.010;2023-05-10T08:05:12;6.35;;;4.93;;
16804;SDS011;8520;50.102;20.010;2023-05-10T08:07:41;5.20;;;4.70;;
16804;SDS011;8520;50.102;20.010;2023-05-10T08:10:09;5.38;;;4.97;;
16804;SDS011;8520;50.102;20.010;2023-05-10T08:12:38;6.47;;;4.70;;
16804;SDS011;8520;50.102;20.010;2023-05-10T08:15:08;6.00;;;5.30;;
16804;SDS011;8520;50.102;20.010;2023-05-10T08:17:37;5.15;;;4.40;;
16804;SDS011;8520;50.102;20.010;2023-05-10T08:20:06;5.88;;;5.15;;
16804;SDS011;8520;50.102;20.010;2023-05-10T08:22:35;5.65;;;5.07;;
16804;SDS011;8520;50.102;20.010;2023-05-10T08:25:04;7.53;;;5.10;;
16804;SDS011;8520;50.102;20.010;2023-05-10T08:27:33;6.68;;;5.50;;
16804;SDS011;8520;50.102;20.010;2023-05-10T08:30:01;5.32;;;4.82;;
16804;SDS011;8520;50.102;20.010;2023-05-10T08:32:31;5.32;;;4.90;;
16804;SDS011;8520;50.102;20.010;2023-05-10T08:34:59;5.88;;;5.30;;
16804;SDS011;8520;50.102;20.010;2023-05-10T08:37:29;5.57;;;5.07;;
16804;SDS011;8520;50.102;20.010;2023-05-10T08:39:58;8.57;;;5.80;;
16804;SDS011;8520;50.102;20.010;2023-05-10T08:42:28;5.50;;;4.97;;
16804;SDS011;8520;50.102;20.010;2023-05-10T08:44:58;5.20;;;4.80;;
16804;SDS011;8520;50.102;20.010;2023-05-10T08:47:27;6.88;;;4.68;;
16804;SDS011;8520;50.102;20.010;2023-05-10T08:49:56;5.18;;;3.90;;
16804;SDS011;8520;50.102;20.010;2023-05-10T08:52:26;5.25;;;4.85;;
16804;SDS011;8520;50.102;20.010;2023-05-10T08:54:55;5.20;;;4.70;;
16804;SDS011;8520;50.102;20.010;2023-05-10T08:57:24;6.55;;;4.47;;
16804;SDS011;8520;50.102;20.010;2023-05-10T08:59:53;4.47;;;4.10;;
16804;SDS011;8520;50.102;20.010;2023-05-10T09:02:21;4.57;;;4.18;;
16804;SDS011;8520;50.102;20.010;2023-05-10T09:04:51;5.85;;;4.65;;
16804;SDS011;8520;50.102;20.010;2023-05-10T09:07:20;4.70;;;4.30;;
16804;SDS011;8520;50.102;20.010;2023-05-10T09:09:49;6.20;;;4.30;;
16804;SDS011;8520;50.102;20.010;2023-05-10T09:12:17;5.25;;;4.28;;
16804;SDS011;8520;50.102;20.010;2023-05-10T09:14:45;6.40;;;3.90;;
16804;SDS011;8520;50.102;20.010;2023-05-10T09:17:14;4.70;;;4.22;;
16804;SDS011;8520;50.102;20.010;2023-05-10T09:19:42;5.28;;;4.72;;
16804;SDS011;8520;50.102;20.010;2023-05-10T09:22:12;4.50;;;4.20;;
16804;SDS011;8520;50.102;20.010;2023-05-10T09:24:41;5.40;;;3.83;;
16804;SDS011;8520;50.102;20.010;2023-05-10T09:27:11;4.32;;;4.13;;
16804;SDS011;8520;50.102;20.010;2023-05-10T09:29:40;3.90;;;3.60;;
16804;SDS011;8520;50.102;20.010;2023-05-10T09:32:09;5.00;;;4.03;;
16804;SDS011;8520;50.102;20.010;2023-05-10T09:34:39;4.50;;;4.10;;
16804;SDS011;8520;50.102;20.010;2023-05-10T09:37:08;4.43;;;4.13;;
16804;SDS011;8520;50.102;20.010;2023-05-10T09:39:37;4.63;;;3.92;;
16804;SDS011;8520;50.102;20.010;2023-05-10T09:42:08;3.80;;;3.50;;
16804;SDS011;8520;50.102;20.010;2023-05-10T09:44:37;5.20;;;4.57;;
16804;SDS011;8520;50.102;20.010;2023-05-10T09:47:07;7.72;;;3.90;;
16804;SDS011;8520;50.102;20.010;2023-05-10T09:49:35;4.78;;;4.47;;
16804;SDS011;8520;50.102;20.010;2023-05-10T09:52:04;4.35;;;3.60;;
16804;SDS011;8520;50.102;20.010;2023-05-10T09:54:33;4.82;;;4.53;;
16804;SDS011;8520;50.102;20.010;2023-05-10T09:57:02;4.00;;;3.80;;
16804;SDS011;8520;50.102;20.010;2023-05-10T09:59:32;6.90;;;3.80;;
16804;SDS011;8520;50.102;20.010;2023-05-10T10:02:01;6.35;;;4.05;;
16804;SDS011;8520;50.102;20.010;2023-05-10T10:04:30;4.10;;;3.90;;
16804;SDS011;8520;50.102;20.010;2023-05-10T10:06:59;6.78;;;6.38;;
16804;SDS011;8520;50.102;20.010;2023-05-10T10:09:29;5.22;;;4.93;;
16804;SDS011;8520;50.102;20.010;2023-05-10T10:11:58;8.57;;;4.95;;
16804;SDS011;8520;50.102;20.010;2023-05-10T10:14:26;5.88;;;4.50;;
16804;SDS011;8520;50.102;20.010;2023-05-10T10:16:56;4.47;;;4.18;;
16804;SDS011;8520;50.102;20.010;2023-05-10T10:19:34;6.80;;;4.00;;
16804;SDS011;8520;50.102;20.010;2023-05-10T10:22:03;5.03;;;3.95;;
16804;SDS011;8520;50.102;20.010;2023-05-10T10:24:32;4.25;;;3.95;;
16804;SDS011;8520;50.102;20.010;2023-05-10T10:27:01;4.05;;;3.47;;
16804;SDS011;8520;50.102;20.010;2023-05-10T10:29:38;3.67;;;3.40;;
16804;SDS011;8520;50.102;20.010;2023-05-10T10:32:11;5.35;;;4.07;;
16804;SDS011;8520;50.102;20.010;2023-05-10T10:34:49;4.72;;;4.32;;
16804;SDS011;8520;50.102;20.010;2023-05-10T10:37:18;3.70;;;3.47;;
16804;SDS011;8520;50.102;20.010;2023-05-10T10:39:47;5.38;;;4.90;;
16804;SDS011;8520;50.102;20.010;2023-05-10T10:45:12;5.43;;;5.00;;
16804;SDS011;8520;50.102;20.010;2023-05-10T10:47:42;5.57;;;5.05;;
16804;SDS011;8520;50.102;20.010;2023-05-10T10:50:11;6.80;;;6.18;;
16804;SDS011;8520;50.102;20.010;2023-05-10T10:52:40;4.50;;;4.15;;
16804;SDS011;8520;50.102;20.010;2023-05-10T10:55:09;7.47;;;6.88;;
16804;SDS011;8520;50.102;20.010;2023-05-10T10:57:43;4.55;;;3.38;;
16804;SDS011;8520;50.102;20.010;2023-05-10T11:00:22;4.13;;;3.80;;
16804;SDS011;8520;50.102;20.010;2023-05-10T11:02:53;4.70;;;4.35;;
16804;SDS011;8520;50.102;20.010;2023-05-10T11:05:25;12.38;;;5.05;;
16804;SDS011;8520;50.102;20.010;2023-05-10T11:08:11;6.15;;;4.03;;
16804;SDS011;8520;50.102;20.010;2023-05-10T11:10:50;4.30;;;3.83;;
16804;SDS011;8520;50.102;20.010;2023-05-10T11:13:26;4.22;;;3.92;;
16804;SDS011;8520;50.102;20.010;2023-05-10T11:15:56;6.18;;;3.70;;
16804;SDS011;8520;50.102;20.010;2023-05-10T11:18:27;4.90;;;3.70;;
16804;SDS011;8520;50.102;20.010;2023-05-10T11:20:57;3.97;;;3.78;;
16804;SDS011;8520;50.102;20.010;2023-05-10T11:23:30;8.50;;;3.60;;
16804;SDS011;8520;50.102;20.010;2023-05-10T11:25:59;5.15;;;4.18;;
16804;SDS011;8520;50.102;20.010;2023-05-10T11:28:27;4.55;;;4.20;;
16804;SDS011;8520;50.102;20.010;2023-05-10T11:30:55;3.92;;;3.63;;
16804;SDS011;8520;50.102;20.010;2023-05-10T11:33:26;4.88;;;4.57;;
16804;SDS011;8520;50.102;20.010;2023-05-10T11:35:54;4.28;;;3.90;;
16804;SDS011;8520;50.102;20.010;2023-05-10T11:38:22;4.57;;;4.00;;
16804;SDS011;8520;50.102;20.010;2023-05-10T11:40:51;4.25;;;3.63;;
16804;SDS011;8520;50.102;20.010;2023-05-10T11:43:23;4.40;;;4.03;;
16804;SDS011;8520;50.102;20.010;2023-05-10T11:45:52;3.78;;;3.47;;
16804;SDS011;8520;50.102;20.010;2023-05-10T11:48:20;3.63;;;3.33;;
16804;SDS011;8520;50.102;20.010;2023-05-10T11:50:51;8.57;;;4.38;;
16804;SDS011;8520;50.102;20.010;2023-05-10T11:53:24;3.55;;;3.25;;
16804;SDS011;8520;50.102;20.010;2023-05-10T11:55:53;5.90;;;4.10;;
16804;SDS011;8520;50.102;20.010;2023-05-10T11:58:21;4.00;;;3.70;;
16804;SDS011;8520;50.102;20.010;2023-05-10T12:00:50;3.90;;;3.50;;
16804;SDS011;8520;50.102;20.010;2023-05-10T12:03:19;5.72;;;4.25;;
16804;SDS011;8520;50.102;20.010;2023-05-10T12:05:47;5.43;;;4.93;;
16804;SDS011;8520;50.102;20.010;2023-05-10T12:08:20;6.75;;;4.47;;
16804;SDS011;8520;50.102;20.010;2023-05-10T12:10:50;4.40;;;3.92;;
16804;SDS011;8520;50.102;20.010;2023-05-10T12:13:19;6.15;;;5.68;;
16804;SDS011;8520;50.102;20.010;2023-05-10T12:15:48;5.97;;;4.10;;
16804;SDS011;8520;50.102;20.010;2023-05-10T12:18:22;5.47;;;4.30;;
16804;SDS011;8520;50.102;20.010;2023-05-10T12:20:51;4.25;;;3.85;;
16804;SDS011;8520;50.102;20.010;2023-05-10T12:23:21;5.88;;;4.03;;
16804;SDS011;8520;50.102;20.010;2023-05-10T12:25:50;4.95;;;4.05;;
16804;SDS011;8520;50.102;20.010;2023-05-10T12:28:20;3.55;;;3.30;;
16804;SDS011;8520;50.102;20.010;2023-05-10T12:30:48;5.80;;;3.85;;
16804;SDS011;8520;50.102;20.010;2023-05-10T12:33:20;4.28;;;3.97;;
16804;SDS011;8520;50.102;20.010;2023-05-10T12:35:50;4.38;;;4.07;;
16804;SDS011;8520;50.102;20.010;2023-05-10T12:38:25;5.80;;;4.13;;
16804;SDS011;8520;50.102;20.010;2023-05-10T12:40:56;4.53;;;4.10;;
16804;SDS011;8520;50.102;20.010;2023-05-10T12:43:25;3.88;;;3.60;;
16804;SDS011;8520;50.102;20.010;2023-05-10T12:45:53;4.20;;;3.97;;
16804;SDS011;8520;50.102;20.010;2023-05-10T12:48:22;4.47;;;4.07;;
16804;SDS011;8520;50.102;20.010;2023-05-10T12:50:52;5.25;;;4.05;;
16804;SDS011;8520;50.102;20.010;2023-05-10T12:53:21;4.95;;;4.05;;
16804;SDS011;8520;50.102;20.010;2023-05-10T12:55:54;3.90;;;3.60;;
16804;SDS011;8520;50.102;20.010;2023-05-10T12:58:24;4.18;;;3.97;;
16804;SDS011;8520;50.102;20.010;2023-05-10T13:01:01;5.03;;;3.80;;
16804;SDS011;8520;50.102;20.010;2023-05-10T13:03:31;4.05;;;3.75;;
16804;SDS011;8520;50.102;20.010;2023-05-10T13:05:59;3.67;;;3.45;;
16804;SDS011;8520;50.102;20.010;2023-05-10T13:08:28;3.92;;;3.60;;
16804;SDS011;8520;50.102;20.010;2023-05-10T13:11:01;7.47;;;6.70;;
16804;SDS011;8520;50.102;20.010;2023-05-10T13:13:31;5.05;;;4.65;;
16804;SDS011;8520;50.102;20.010;2023-05-10T13:16:01;8.77;;;4.32;;
16804;SDS011;8520;50.102;20.010;2023-05-10T13:18:30;4.75;;;4.35;;
16804;SDS011;8520;50.102;20.010;2023-05-10T13:20:59;6.97;;;4.55;;
16804;SDS011;8520;50.102;20.010;2023-05-10T13:23:27;6.22;;;4.70;;
16804;SDS011;8520;50.102;20.010;2023-05-10T13:25:56;4.32;;;3.97;;
16804;SDS011;8520;50.102;20.010;2023-05-10T13:28:26;4.18;;;3.90;;
16804;SDS011;8520;50.102;20.010;2023-05-10T13:30:54;5.05;;;4.50;;
16804;SDS011;8520;50.102;20.010;2023-05-10T13:33:23;5.03;;;3.65;;
16804;SDS011;8520;50.102;20.010;2023-05-10T13:35:51;3.80;;;3.50;;
16804;SDS011;8520;50.102;20.010;2023-05-10T13:38:21;4.47;;;4.07;;
16804;SDS011;8520;50.102;20.010;2023-05-10T13:40:50;5.13;;;4.63;;
16804;SDS011;8520;50.102;20.010;2023-05-10T13:43:19;5.43;;;4.00;;
16804;SDS011;8520;50.102;20.010;2023-05-10T13:45:49;4.18;;;3.72;;
16804;SDS011;8520;50.102;20.010;2023-05-10T13:48:18;6.68;;;4.97;;
16804;SDS011;8520;50.102;20.010;2023-05-10T13:50:46;8.40;;;4.32;;
16804;SDS011;8520;50.102;20.010;2023-05-10T13:53:15;10.45;;;4.53;;
16804;SDS011;8520;50.102;20.010;2023-05-10T13:55:43;4.65;;;4.25;;
16804;SDS011;8520;50.102;20.010;2023-05-10T13:58:12;4.80;;;4.43;;
16804;SDS011;8520;50.102;20.010;2023-05-10T14:00:41;4.13;;;3.92;;
16804;SDS011;8520;50.102;20.010;2023-05-10T14:03:10;4.57;;;4.28;;
16804;SDS011;8520;50.102;20.010;2023-05-10T14:05:39;4.55;;;4.32;;
16804;SDS011;8520;50.102;20.010;2023-05-10T14:08:07;4.35;;;4.13;;
16804;SDS011;8520;50.102;20.010;2023-05-10T14:10:36;4.10;;;3.80;;
16804;SDS011;8520;50.102;20.010;2023-05-10T14:13:05;5.47;;;4.15;;
16804;SDS011;8520;50.102;20.010;2023-05-10T14:15:34;6.97;;;5.22;;
16804;SDS011;8520;50.102;20.010;2023-05-10T14:18:02;5.10;;;4.70;;
16804;SDS011;8520;50.102;20.010;2023-05-10T14:20:32;4.90;;;4.50;;
16804;SDS011;8520;50.102;20.010;2023-05-10T14:23:01;4.57;;;4.25;;
16804;SDS011;8520;50.102;20.010;2023-05-10T14:25:29;4.15;;;3.42;;
16804;SDS011;8520;50.102;20.010;2023-05-10T14:27:58;5.00;;;4.70;;
16804;SDS011;8520;50.102;20.010;2023-05-10T14:30:26;4.35;;;3.85;;
16804;SDS011;8520;50.102;20.010;2023-05-10T14:32:54;5.07;;;4.65;;
16804;SDS011;8520;50.102;20.010;2023-05-10T14:35:25;4.10;;;3.85;;
16804;SDS011;8520;50.102;20.010;2023-05-10T14:37:54;3.78;;;3.58;;
16804;SDS011;8520;50.102;20.010;2023-05-10T14:40:23;6.47;;;4.05;;
16804;SDS011;8520;50.102;20.010;2023-05-10T14:42:52;5.65;;;3.90;;
16804;SDS011;8520;50.102;20.010;2023-05-10T14:45:20;12.48;;;4.38;;
16804;SDS011;8520;50.102;20.010;2023-05-10T14:47:49;5.90;;;4.20;;
16804;SDS011;8520;50.102;20.010;2023-05-10T14:50:17;3.90;;;3.70;;
16804;SDS011;8520;50.102;20.010;2023-05-10T14:53:03;5.10;;;4.60;;
16804;SDS011;8520;50.102;20.010;2023-05-10T14:55:31;4.47;;;4.28;;
16804;SDS011;8520;50.102;20.010;2023-05-10T14:58:01;5.35;;;5.05;;
16804;SDS011;8520;50.102;20.010;2023-05-10T15:00:29;4.38;;;4.18;;
16804;SDS011;8520;50.102;20.010;2023-05-10T15:02:59;4.40;;;4.20;;
16804;SDS011;8520;50.102;20.010;2023-05-10T15:05:27;15.90;;;5.05;;
16804;SDS011;8520;50.102;20.010;2023-05-10T15:07:57;3.92;;;3.72;;
16804;SDS011;8520;50.102;20.010;2023-05-10T15:10:27;4.53;;;4.13;;